sensor_id;sensor_type;location;lat;lon;timestamp;P1;durP1;ratioP1;P2;durP2;ratioP2
79747;SDS011;69232;47.488;19.268;2023-10-31T00:00:18;12.90;;;6.00;;
79747;SDS011;69232;47.488;19.268;2023-10-31T00:02:44;15.55;;;6.45;;
79747;SDS011;69232;47.488;19.268;2023-10-31T00:05:09;13.25;;;6.35;;
79747;SDS011;69232;47.488;19.268;2023-10-31T00:07:35;11.63;;;6.40;;
79747;SDS011;69232;47.488;19.268;2023-10-31T00:10:00;10.55;;;6.45;;
79747;SDS011;69232;47.488;19.268;2023-10-31T00:12:26;13.13;;;6.03;;
79747;SDS011;69232;47.488;19.268;2023-10-31T00:14:51;12.38;;;6.18;;
79747;SDS011;69232;47.488;19.268;2023-10-31T00:17:16;12.40;;;6.57;;
79747;SDS011;69232;47.488;19.268;2023-10-31T00:19:42;17.90;;;6.75;;
79747;SDS011;69232;47.488;19.268;2023-10-31T00:22:09;10.73;;;5.93;;
79747;SDS011;69232;47.488;19.268;2023-10-31T00:24:34;12.85;;;6.82;;
79747;SDS011;69232;47.488;19.268;2023-10-31T00:27:00;12.73;;;6.18;;
79747;SDS011;69232;47.488;19.268;2023-10-31T00:29:25;15.35;;;7.25;;
79747;SDS011;69232;47.488;19.268;2023-10-31T00:31:51;13.98;;;6.63;;
79747;SDS011;69232;47.488;19.268;2023-10-31T00:34:16;14.77;;;6.50;;
79747;SDS011;69232;47.488;19.268;2023-10-31T00:36:42;19.55;;;6.90;;
79747;SDS011;69232;47.488;19.268;2023-10-31T00:39:07;15.75;;;6.97;;
79747;SDS011;69232;47.488;19.268;2023-10-31T00:41:32;12.38;;;6.25;;
79747;SDS011;69232;47.488;19.268;2023-10-31T00:43:58;10.25;;;5.90;;
79747;SDS011;69232;47.488;19.268;2023-10-31T00:46:24;14.23;;;6.40;;
79747;SDS011;69232;47.488;19.268;2023-10-31T00:48:49;16.10;;;6.97;;
79747;SDS011;69232;47.488;19.268;2023-10-31T00:51:14;14.48;;;5.82;;
79747;SDS011;69232;47.488;19.268;2023-10-31T00:53:40;14.27;;;6.07;;
79747;SDS011;69232;47.488;19.268;2023-10-31T00:56:05;16.23;;;6.28;;
79747;SDS011;69232;47.488;19.268;2023-10-31T00:58:31;14.05;;;7.20;;
79747;SDS011;69232;47.488;19.268;2023-10-31T01:00:57;14.63;;;6.13;;
79747;SDS011;69232;47.488;19.268;2023-10-31T01:03:22;14.38;;;6.03;;
79747;SDS011;69232;47.488;19.268;2023-10-31T01:05:48;23.42;;;6.72;;
79747;SDS011;69232;47.488;19.268;2023-10-31T01:08:13;11.25;;;6.10;;
79747;SDS011;69232;47.488;19.268;2023-10-31T01:10:39;10.93;;;5.93;;
79747;SDS011;69232;47.488;19.268;2023-10-31T01:13:05;14.50;;;6.13;;
79747;SDS011;69232;47.488;19.268;2023-10-31T01:15:30;16.10;;;6.68;;
79747;SDS011;69232;47.488;19.268;2023-10-31T01:17:56;12.30;;;6.40;;
79747;SDS011;69232;47.488;19.268;2023-10-31T01:20:21;12.70;;;6.25;;
79747;SDS011;69232;47.488;19.268;2023-10-31T01:22:46;18.23;;;6.43;;
79747;SDS011;69232;47.488;19.268;2023-10-31T01:25:12;11.93;;;6.35;;
79747;SDS011;69232;47.488;19.268;2023-10-31T01:27:37;10.85;;;5.53;;
79747;SDS011;69232;47.488;19.268;2023-10-31T01:30:03;20.77;;;6.63;;
79747;SDS011;69232;47.488;19.268;2023-10-31T01:32:28;11.75;;;5.85;;
79747;SDS011;69232;47.488;19.268;2023-10-31T01:34:54;12.30;;;5.90;;
79747;SDS011;69232;47.488;19.268;2023-10-31T01:37:19;12.27;;;5.80;;
79747;SDS011;69232;47.488;19.268;2023-10-31T01:39:46;16.77;;;6.32;;
79747;SDS011;69232;47.488;19.268;2023-10-31T01:42:14;12.30;;;6.22;;
79747;SDS011;69232;47.488;19.268;2023-10-31T01:44:40;11.45;;;5.93;;
79747;SDS011;69232;47.488;19.268;2023-10-31T01:47:05;16.27;;;6.55;;
79747;SDS011;69232;47.488;19.268;2023-10-31T01:49:31;15.00;;;6.97;;
79747;SDS011;69232;47.488;19.268;2023-10-31T01:51:58;12.48;;;5.88;;
79747;SDS011;69232;47.488;19.268;2023-10-31T01:54:24;12.52;;;5.43;;
79747;SDS011;69232;47.488;19.268;2023-10-31T01:56:50;14.82;;;6.13;;
79747;SDS011;69232;47.488;19.268;2023-10-31T01:59:21;11.60;;;6.35;;
79747;SDS011;69232;47.488;19.268;2023-10-31T02:01:46;13.50;;;5.90;;
79747;SDS011;69232;47.488;19.268;2023-10-31T02:04:12;12.43;;;6.22;;
79747;SDS011;69232;47.488;19.268;2023-10-31T02:06:37;11.15;;;6.15;;
79747;SDS011;69232;47.488;19.268;2023-10-31T02:09:03;14.95;;;6.63;;
79747;SDS011;69232;47.488;19.268;2023-10-31T02:11:29;16.15;;;7.82;;
79747;SDS011;69232;47.488;19.268;2023-10-31T02:13:54;12.52;;;5.88;;
79747;SDS011;69232;47.488;19.268;2023-10-31T02:16:19;15.30;;;6.57;;
79747;SDS011;69232;47.488;19.268;2023-10-31T02:18:45;12.93;;;5.78;;
79747;SDS011;69232;47.488;19.268;2023-10-31T02:21:10;15.43;;;6.25;;
79747;SDS011;69232;47.488;19.268;2023-10-31T02:23:36;11.32;;;6.00;;
79747;SDS011;69232;47.488;19.268;2023-10-31T02:26:01;9.35;;;6.05;;
79747;SDS011;69232;47.488;19.268;2023-10-31T02:28:28;10.05;;;5.15;;
79747;SDS011;69232;47.488;19.268;2023-10-31T02:30:54;11.43;;;6.00;;
79747;SDS011;69232;47.488;19.268;2023-10-31T02:33:22;10.02;;;5.68;;
79747;SDS011;69232;47.488;19.268;2023-10-31T02:35:47;12.02;;;4.90;;
79747;SDS011;69232;47.488;19.268;2023-10-31T02:38:13;11.15;;;4.90;;
79747;SDS011;69232;47.488;19.268;2023-10-31T02:40:38;11.93;;;5.32;;
79747;SDS011;69232;47.488;19.268;2023-10-31T02:43:04;14.20;;;6.30;;
79747;SDS011;69232;47.488;19.268;2023-10-31T02:45:29;8.10;;;5.20;;
79747;SDS011;69232;47.488;19.268;2023-10-31T02:47:55;16.50;;;5.60;;
79747;SDS011;69232;47.488;19.268;2023-10-31T02:50:20;10.48;;;5.55;;
79747;SDS011;69232;47.488;19.268;2023-10-31T02:52:46;10.13;;;5.10;;
79747;SDS011;69232;47.488;19.268;2023-10-31T02:55:11;12.18;;;5.30;;
79747;SDS011;69232;47.488;19.268;2023-10-31T02:57:37;10.55;;;5.07;;
79747;SDS011;69232;47.488;19.268;2023-10-31T03:00:02;10.38;;;5.03;;
79747;SDS011;69232;47.488;19.268;2023-10-31T03:02:29;10.82;;;5.63;;
79747;SDS011;69232;47.488;19.268;2023-10-31T03:04:55;9.00;;;4.82;;
79747;SDS011;69232;47.488;19.268;2023-10-31T03:07:20;11.27;;;4.75;;
79747;SDS011;69232;47.488;19.268;2023-10-31T03:09:46;10.32;;;4.35;;
79747;SDS011;69232;47.488;19.268;2023-10-31T03:12:11;10.57;;;5.03;;
79747;SDS011;69232;47.488;19.268;2023-10-31T03:14:37;9.88;;;5.50;;
79747;SDS011;69232;47.488;19.268;2023-10-31T03:17:02;7.90;;;4.57;;
79747;SDS011;69232;47.488;19.268;2023-10-31T03:19:28;11.35;;;4.60;;
79747;SDS011;69232;47.488;19.268;2023-10-31T03:21:53;6.78;;;4.00;;
79747;SDS011;69232;47.488;19.268;2023-10-31T03:24:19;9.23;;;4.88;;
79747;SDS011;69232;47.488;19.268;2023-10-31T03:26:44;9.38;;;5.05;;
79747;SDS011;69232;47.488;19.268;2023-10-31T03:29:09;11.38;;;5.13;;
79747;SDS011;69232;47.488;19.268;2023-10-31T03:31:35;11.00;;;5.13;;
79747;SDS011;69232;47.488;19.268;2023-10-31T03:34:00;9.82;;;4.80;;
79747;SDS011;69232;47.488;19.268;2023-10-31T03:36:26;12.93;;;4.78;;
79747;SDS011;69232;47.488;19.268;2023-10-31T03:38:51;12.70;;;4.90;;
79747;SDS011;69232;47.488;19.268;2023-10-31T03:41:17;12.07;;;5.60;;
79747;SDS011;69232;47.488;19.268;2023-10-31T03:43:42;10.77;;;4.82;;
79747;SDS011;69232;47.488;19.268;2023-10-31T03:46:08;7.65;;;4.38;;
79747;SDS011;69232;47.488;19.268;2023-10-31T03:48:33;12.18;;;4.80;;
79747;SDS011;69232;47.488;19.268;2023-10-31T03:50:58;13.50;;;4.78;;
79747;SDS011;69232;47.488;19.268;2023-10-31T03:53:24;7.78;;;4.57;;
79747;SDS011;69232;47.488;19.268;2023-10-31T03:55:49;10.88;;;4.82;;
79747;SDS011;69232;47.488;19.268;2023-10-31T03:58:15;8.25;;;4.05;;
79747;SDS011;69232;47.488;19.268;2023-10-31T04:00:40;13.23;;;4.32;;
79747;SDS011;69232;47.488;19.268;2023-10-31T04:03:06;9.52;;;3.83;;
79747;SDS011;69232;47.488;19.268;2023-10-31T04:05:32;9.18;;;4.25;;
79747;SDS011;69232;47.488;19.268;2023-10-31T04:07:58;8.27;;;4.07;;
79747;SDS011;69232;47.488;19.268;2023-10-31T04:10:23;9.32;;;3.90;;
79747;SDS011;69232;47.488;19.268;2023-10-31T04:12:50;9.48;;;4.65;;
79747;SDS011;69232;47.488;19.268;2023-10-31T04:15:15;10.48;;;4.65;;
79747;SDS011;69232;47.488;19.268;2023-10-31T04:17:41;14.73;;;4.93;;
79747;SDS011;69232;47.488;19.268;2023-10-31T04:20:06;11.23;;;4.85;;
79747;SDS011;69232;47.488;19.268;2023-10-31T04:22:32;10.73;;;4.65;;
79747;SDS011;69232;47.488;19.268;2023-10-31T04:24:58;9.48;;;4.80;;
79747;SDS011;69232;47.488;19.268;2023-10-31T04:27:23;12.07;;;4.63;;
79747;SDS011;69232;47.488;19.268;2023-10-31T04:29:49;9.65;;;4.90;;
79747;SDS011;69232;47.488;19.268;2023-10-31T04:32:14;8.05;;;4.13;;
79747;SDS011;69232;47.488;19.268;2023-10-31T04:34:39;6.72;;;4.05;;
79747;SDS011;69232;47.488;19.268;2023-10-31T04:37:05;10.25;;;4.88;;
79747;SDS011;69232;47.488;19.268;2023-10-31T04:39:31;11.73;;;4.88;;
79747;SDS011;69232;47.488;19.268;2023-10-31T04:41:56;10.25;;;4.47;;
79747;SDS011;69232;47.488;19.268;2023-10-31T04:44:22;8.07;;;4.20;;
79747;SDS011;69232;47.488;19.268;2023-10-31T04:46:47;11.25;;;5.18;;
79747;SDS011;69232;47.488;19.268;2023-10-31T04:49:13;11.38;;;4.05;;
79747;SDS011;69232;47.488;19.268;2023-10-31T04:51:38;8.18;;;4.38;;
79747;SDS011;69232;47.488;19.268;2023-10-31T04:54:04;11.32;;;4.32;;
79747;SDS011;69232;47.488;19.268;2023-10-31T04:56:30;11.60;;;4.63;;
79747;SDS011;69232;47.488;19.268;2023-10-31T04:58:55;9.70;;;4.93;;
79747;SDS011;69232;47.488;19.268;2023-10-31T05:01:21;8.50;;;4.25;;
79747;SDS011;69232;47.488;19.268;2023-10-31T05:03:46;12.20;;;4.20;;
79747;SDS011;69232;47.488;19.268;2023-10-31T05:06:12;11.50;;;4.35;;
79747;SDS011;69232;47.488;19.268;2023-10-31T05:08:37;10.57;;;4.03;;
79747;SDS011;69232;47.488;19.268;2023-10-31T05:11:02;9.75;;;4.15;;
79747;SDS011;69232;47.488;19.268;2023-10-31T05:13:28;11.68;;;4.97;;
79747;SDS011;69232;47.488;19.268;2023-10-31T05:15:54;7.05;;;3.38;;
79747;SDS011;69232;47.488;19.268;2023-10-31T05:18:19;7.53;;;4.15;;
79747;SDS011;69232;47.488;19.268;2023-10-31T05:20:45;10.20;;;3.97;;
79747;SDS011;69232;47.488;19.268;2023-10-31T05:23:10;7.57;;;4.00;;
79747;SDS011;69232;47.488;19.268;2023-10-31T05:25:36;8.32;;;3.47;;
79747;SDS011;69232;47.488;19.268;2023-10-31T05:28:02;5.53;;;3.72;;
79747;SDS011;69232;47.488;19.268;2023-10-31T05:30:28;5.32;;;2.92;;
79747;SDS011;69232;47.488;19.268;2023-10-31T05:32:53;4.47;;;2.30;;
79747;SDS011;69232;47.488;19.268;2023-10-31T05:35:19;4.90;;;2.50;;
79747;SDS011;69232;47.488;19.268;2023-10-31T05:37:45;6.45;;;2.92;;
79747;SDS011;69232;47.488;19.268;2023-10-31T05:40:11;4.45;;;2.15;;
79747;SDS011;69232;47.488;19.268;2023-10-31T05:42:38;5.35;;;2.35;;
79747;SDS011;69232;47.488;19.268;2023-10-31T05:45:03;5.93;;;2.20;;
79747;SDS011;69232;47.488;19.268;2023-10-31T05:47:29;4.45;;;2.30;;
79747;SDS011;69232;47.488;19.268;2023-10-31T05:49:55;3.63;;;2.33;;
79747;SDS011;69232;47.488;19.268;2023-10-31T05:52:20;4.40;;;2.28;;
79747;SDS011;69232;47.488;19.268;2023-10-31T05:54:45;3.50;;;2.20;;
79747;SDS011;69232;47.488;19.268;2023-10-31T05:57:11;3.75;;;2.60;;
79747;SDS011;69232;47.488;19.268;2023-10-31T05:59:36;4.55;;;2.75;;
79747;SDS011;69232;47.488;19.268;2023-10-31T06:02:02;7.13;;;2.13;;
79747;SDS011;69232;47.488;19.268;2023-10-31T06:04:27;4.65;;;2.55;;
79747;SDS011;69232;47.488;19.268;2023-10-31T06:06:53;4.95;;;2.65;;
79747;SDS011;69232;47.488;19.268;2023-10-31T06:09:18;11.13;;;3.20;;
79747;SDS011;69232;47.488;19.268;2023-10-31T06:11:43;6.35;;;2.70;;
79747;SDS011;69232;47.488;19.268;2023-10-31T06:14:10;8.18;;;3.03;;
79747;SDS011;69232;47.488;19.268;2023-10-31T06:16:41;7.70;;;2.88;;
79747;SDS011;69232;47.488;19.268;2023-10-31T06:19:07;7.50;;;3.58;;
79747;SDS011;69232;47.488;19.268;2023-10-31T06:21:33;5.18;;;2.53;;
79747;SDS011;69232;47.488;19.268;2023-10-31T06:23:58;6.68;;;2.47;;
79747;SDS011;69232;47.488;19.268;2023-10-31T06:26:24;6.20;;;2.88;;
79747;SDS011;69232;47.488;19.268;2023-10-31T06:28:49;4.18;;;2.13;;
79747;SDS011;69232;47.488;19.268;2023-10-31T06:31:14;4.32;;;2.30;;
79747;SDS011;69232;47.488;19.268;2023-10-31T06:33:40;7.53;;;2.15;;
79747;SDS011;69232;47.488;19.268;2023-10-31T06:36:06;4.53;;;1.83;;
79747;SDS011;69232;47.488;19.268;2023-10-31T06:38:32;4.35;;;2.05;;
79747;SDS011;69232;47.488;19.268;2023-10-31T06:40:57;7.90;;;1.90;;
79747;SDS011;69232;47.488;19.268;2023-10-31T06:43:23;6.13;;;2.25;;
79747;SDS011;69232;47.488;19.268;2023-10-31T06:45:49;5.50;;;2.88;;
79747;SDS011;69232;47.488;19.268;2023-10-31T06:48:15;2.83;;;1.75;;
79747;SDS011;69232;47.488;19.268;2023-10-31T06:50:40;3.00;;;1.73;;
79747;SDS011;69232;47.488;19.268;2023-10-31T06:53:05;4.28;;;2.13;;
79747;SDS011;69232;47.488;19.268;2023-10-31T06:55:31;3.80;;;1.90;;
79747;SDS011;69232;47.488;19.268;2023-10-31T06:57:56;3.22;;;1.85;;
79747;SDS011;69232;47.488;19.268;2023-10-31T07:00:22;4.32;;;1.92;;
79747;SDS011;69232;47.488;19.268;2023-10-31T07:02:47;4.93;;;1.88;;
79747;SDS011;69232;47.488;19.268;2023-10-31T07:05:13;3.25;;;1.50;;
79747;SDS011;69232;47.488;19.268;2023-10-31T07:07:40;4.78;;;1.70;;
79747;SDS011;69232;47.488;19.268;2023-10-31T07:10:06;3.67;;;1.42;;
79747;SDS011;69232;47.488;19.268;2023-10-31T07:12:31;3.13;;;1.45;;
79747;SDS011;69232;47.488;19.268;2023-10-31T07:14:57;2.90;;;1.23;;
79747;SDS011;69232;47.488;19.268;2023-10-31T07:17:23;4.57;;;1.48;;
79747;SDS011;69232;47.488;19.268;2023-10-31T07:19:50;4.47;;;1.70;;
79747;SDS011;69232;47.488;19.268;2023-10-31T07:22:15;4.53;;;1.52;;
79747;SDS011;69232;47.488;19.268;2023-10-31T07:24:41;3.90;;;1.50;;
79747;SDS011;69232;47.488;19.268;2023-10-31T07:27:06;3.55;;;1.75;;
79747;SDS011;69232;47.488;19.268;2023-10-31T07:29:31;5.18;;;1.70;;
79747;SDS011;69232;47.488;19.268;2023-10-31T07:31:57;4.15;;;1.85;;
79747;SDS011;69232;47.488;19.268;2023-10-31T07:34:22;3.55;;;1.83;;
79747;SDS011;69232;47.488;19.268;2023-10-31T07:36:48;4.63;;;1.60;;
79747;SDS011;69232;47.488;19.268;2023-10-31T07:39:13;4.05;;;1.70;;
79747;SDS011;69232;47.488;19.268;2023-10-31T07:41:39;3.25;;;1.50;;
79747;SDS011;69232;47.488;19.268;2023-10-31T07:44:05;4.13;;;1.67;;
79747;SDS011;69232;47.488;19.268;2023-10-31T07:46:31;2.83;;;1.55;;
79747;SDS011;69232;47.488;19.268;2023-10-31T07:48:56;2.65;;;1.90;;
79747;SDS011;69232;47.488;19.268;2023-10-31T07:51:22;2.90;;;1.77;;
79747;SDS011;69232;47.488;19.268;2023-10-31T07:53:47;4.55;;;1.48;;
79747;SDS011;69232;47.488;19.268;2023-10-31T07:56:16;2.38;;;1.40;;
79747;SDS011;69232;47.488;19.268;2023-10-31T07:58:42;3.08;;;1.70;;
79747;SDS011;69232;47.488;19.268;2023-10-31T08:01:08;3.22;;;1.58;;
79747;SDS011;69232;47.488;19.268;2023-10-31T08:03:36;3.22;;;1.65;;
79747;SDS011;69232;47.488;19.268;2023-10-31T08:06:02;3.15;;;1.85;;
79747;SDS011;69232;47.488;19.268;2023-10-31T08:08:30;3.20;;;1.52;;
79747;SDS011;69232;47.488;19.268;2023-10-31T08:10:55;3.92;;;1.60;;
79747;SDS011;69232;47.488;19.268;2023-10-31T08:13:22;3.40;;;1.45;;
79747;SDS011;69232;47.488;19.268;2023-10-31T08:15:47;3.10;;;1.80;;
79747;SDS011;69232;47.488;19.268;2023-10-31T08:18:13;5.03;;;1.50;;
79747;SDS011;69232;47.488;19.268;2023-10-31T08:20:38;4.18;;;1.73;;
79747;SDS011;69232;47.488;19.268;2023-10-31T08:23:04;3.30;;;1.50;;
79747;SDS011;69232;47.488;19.268;2023-10-31T08:25:29;3.00;;;1.58;;
79747;SDS011;69232;47.488;19.268;2023-10-31T08:27:55;4.47;;;1.55;;
79747;SDS011;69232;47.488;19.268;2023-10-31T08:30:20;4.38;;;1.83;;
79747;SDS011;69232;47.488;19.268;2023-10-31T08:32:47;2.55;;;1.40;;
79747;SDS011;69232;47.488;19.268;2023-10-31T08:35:12;5.22;;;2.15;;
79747;SDS011;69232;47.488;19.268;2023-10-31T08:37:37;3.13;;;2.10;;
79747;SDS011;69232;47.488;19.268;2023-10-31T08:40:03;4.38;;;1.85;;
79747;SDS011;69232;47.488;19.268;2023-10-31T08:42:29;5.28;;;1.50;;
79747;SDS011;69232;47.488;19.268;2023-10-31T08:44:55;5.40;;;1.80;;
79747;SDS011;69232;47.488;19.268;2023-10-31T08:47:20;5.15;;;1.80;;
79747;SDS011;69232;47.488;19.268;2023-10-31T08:49:46;4.80;;;1.67;;
79747;SDS011;69232;47.488;19.268;2023-10-31T08:52:11;4.47;;;1.50;;
79747;SDS011;69232;47.488;19.268;2023-10-31T08:54:37;4.03;;;1.50;;
79747;SDS011;69232;47.488;19.268;2023-10-31T08:57:02;2.88;;;1.40;;
79747;SDS011;69232;47.488;19.268;2023-10-31T08:59:28;2.25;;;1.30;;
79747;SDS011;69232;47.488;19.268;2023-10-31T09:01:53;3.10;;;1.60;;
79747;SDS011;69232;47.488;19.268;2023-10-31T09:04:18;3.30;;;1.52;;
79747;SDS011;69232;47.488;19.268;2023-10-31T09:06:44;3.35;;;1.23;;
79747;SDS011;69232;47.488;19.268;2023-10-31T09:09:09;5.07;;;1.83;;
79747;SDS011;69232;47.488;19.268;2023-10-31T09:11:35;4.50;;;1.50;;
79747;SDS011;69232;47.488;19.268;2023-10-31T09:14:01;1.98;;;1.35;;
79747;SDS011;69232;47.488;19.268;2023-10-31T09:16:26;5.07;;;1.48;;
79747;SDS011;69232;47.488;19.268;2023-10-31T09:18:51;4.47;;;1.60;;
79747;SDS011;69232;47.488;19.268;2023-10-31T09:21:17;3.28;;;1.25;;
79747;SDS011;69232;47.488;19.268;2023-10-31T09:23:43;2.55;;;1.40;;
79747;SDS011;69232;47.488;19.268;2023-10-31T09:26:08;8.30;;;2.10;;
79747;SDS011;69232;47.488;19.268;2023-10-31T09:28:35;4.20;;;2.45;;
79747;SDS011;69232;47.488;19.268;2023-10-31T09:31:01;2.33;;;1.40;;
79747;SDS011;69232;47.488;19.268;2023-10-31T09:33:26;3.17;;;1.00;;
79747;SDS011;69232;47.488;19.268;2023-10-31T09:35:52;1.40;;;1.05;;
79747;SDS011;69232;47.488;19.268;2023-10-31T09:38:17;3.65;;;1.42;;
79747;SDS011;69232;47.488;19.268;2023-10-31T09:40:43;2.20;;;1.20;;
79747;SDS011;69232;47.488;19.268;2023-10-31T09:43:08;3.53;;;1.80;;
79747;SDS011;69232;47.488;19.268;2023-10-31T09:45:34;2.65;;;1.50;;
79747;SDS011;69232;47.488;19.268;2023-10-31T09:47:59;2.63;;;1.40;;
79747;SDS011;69232;47.488;19.268;2023-10-31T09:50:26;3.95;;;1.73;;
79747;SDS011;69232;47.488;19.268;2023-10-31T09:52:51;3.40;;;1.40;;
79747;SDS011;69232;47.488;19.268;2023-10-31T09:55:18;6.07;;;1.50;;
79747;SDS011;69232;47.488;19.268;2023-10-31T09:57:44;3.20;;;1.30;;
79747;SDS011;69232;47.488;19.268;2023-10-31T10:00:10;2.15;;;1.10;;
79747;SDS011;69232;47.488;19.268;2023-10-31T10:02:36;5.25;;;1.55;;
79747;SDS011;69232;47.488;19.268;2023-10-31T10:05:01;5.85;;;1.67;;
79747;SDS011;69232;47.488;19.268;2023-10-31T10:07:27;2.95;;;1.60;;
79747;SDS011;69232;47.488;19.268;2023-10-31T10:09:52;2.65;;;1.30;;
79747;SDS011;69232;47.488;19.268;2023-10-31T10:12:18;3.75;;;1.48;;
79747;SDS011;69232;47.488;19.268;2023-10-31T10:14:46;3.30;;;1.30;;
79747;SDS011;69232;47.488;19.268;2023-10-31T10:19:41;3.97;;;1.33;;
79747;SDS011;69232;47.488;19.268;2023-10-31T10:22:06;2.65;;;1.58;;
79747;SDS011;69232;47.488;19.268;2023-10-31T10:24:32;4.65;;;1.05;;
79747;SDS011;69232;47.488;19.268;2023-10-31T10:26:57;3.92;;;1.10;;
79747;SDS011;69232;47.488;19.268;2023-10-31T10:29:23;2.97;;;1.17;;
79747;SDS011;69232;47.488;19.268;2023-10-31T10:31:49;2.45;;;1.33;;
79747;SDS011;69232;47.488;19.268;2023-10-31T10:34:15;3.38;;;1.85;;
79747;SDS011;69232;47.488;19.268;2023-10-31T10:36:48;1.63;;;1.02;;
79747;SDS011;69232;47.488;19.268;2023-10-31T10:39:21;2.70;;;1.10;;
79747;SDS011;69232;47.488;19.268;2023-10-31T10:41:54;3.15;;;0.93;;
79747;SDS011;69232;47.488;19.268;2023-10-31T10:44:33;5.28;;;1.13;;
79747;SDS011;69232;47.488;19.268;2023-10-31T10:47:02;3.95;;;1.20;;
79747;SDS011;69232;47.488;19.268;2023-10-31T10:49:35;1.83;;;1.30;;
79747;SDS011;69232;47.488;19.268;2023-10-31T10:57:36;3.45;;;1.13;;
79747;SDS011;69232;47.488;19.268;2023-10-31T11:00:07;2.95;;;0.88;;
79747;SDS011;69232;47.488;19.268;2023-10-31T11:02:34;2.13;;;1.13;;
79747;SDS011;69232;47.488;19.268;2023-10-31T11:05:02;4.85;;;1.35;;
79747;SDS011;69232;47.488;19.268;2023-10-31T11:07:29;3.42;;;1.45;;
79747;SDS011;69232;47.488;19.268;2023-10-31T11:09:55;2.80;;;1.20;;
79747;SDS011;69232;47.488;19.268;2023-10-31T11:12:22;2.97;;;1.10;;
79747;SDS011;69232;47.488;19.268;2023-10-31T11:14:48;2.67;;;1.20;;
79747;SDS011;69232;47.488;19.268;2023-10-31T11:17:33;2.38;;;1.10;;
79747;SDS011;69232;47.488;19.268;2023-10-31T11:20:02;1.98;;;1.10;;
79747;SDS011;69232;47.488;19.268;2023-10-31T11:22:38;3.20;;;1.00;;
79747;SDS011;69232;47.488;19.268;2023-10-31T11:25:06;3.28;;;1.42;;
79747;SDS011;69232;47.488;19.268;2023-10-31T11:30:04;6.55;;;1.08;;
79747;SDS011;69232;47.488;19.268;2023-10-31T11:32:31;2.30;;;1.20;;
79747;SDS011;69232;47.488;19.268;2023-10-31T11:34:57;3.67;;;1.13;;
79747;SDS011;69232;47.488;19.268;2023-10-31T11:37:23;5.20;;;1.10;;
79747;SDS011;69232;47.488;19.268;2023-10-31T11:42:47;1.85;;;1.10;;
79747;SDS011;69232;47.488;19.268;2023-10-31T11:45:23;3.65;;;1.00;;
79747;SDS011;69232;47.488;19.268;2023-10-31T11:48:03;2.75;;;1.30;;
79747;SDS011;69232;47.488;19.268;2023-10-31T11:50:30;3.08;;;1.17;;
79747;SDS011;69232;47.488;19.268;2023-10-31T11:53:00;4.07;;;1.75;;
79747;SDS011;69232;47.488;19.268;2023-10-31T11:55:26;3.00;;;1.20;;
79747;SDS011;69232;47.488;19.268;2023-10-31T11:57:52;5.15;;;1.40;;
79747;SDS011;69232;47.488;19.268;2023-10-31T12:00:21;3.55;;;1.30;;
79747;SDS011;69232;47.488;19.268;2023-10-31T12:05:26;3.15;;;1.05;;
79747;SDS011;69232;47.488;19.268;2023-10-31T12:07:51;2.92;;;1.30;;
79747;SDS011;69232;47.488;19.268;2023-10-31T12:10:23;3.13;;;1.40;;
79747;SDS011;69232;47.488;19.268;2023-10-31T12:12:55;3.20;;;1.35;;
79747;SDS011;69232;47.488;19.268;2023-10-31T12:15:21;6.00;;;1.48;;
79747;SDS011;69232;47.488;19.268;2023-10-31T12:17:47;6.30;;;2.03;;
79747;SDS011;69232;47.488;19.268;2023-10-31T12:20:13;4.38;;;1.50;;
79747;SDS011;69232;47.488;19.268;2023-10-31T12:22:39;4.57;;;1.73;;
79747;SDS011;69232;47.488;19.268;2023-10-31T12:25:05;3.70;;;1.70;;
79747;SDS011;69232;47.488;19.268;2023-10-31T12:27:45;2.40;;;1.50;;
79747;SDS011;69232;47.488;19.268;2023-10-31T12:30:11;5.03;;;1.50;;
79747;SDS011;69232;47.488;19.268;2023-10-31T12:32:39;2.42;;;1.20;;
79747;SDS011;69232;47.488;19.268;2023-10-31T12:35:05;4.38;;;1.65;;
79747;SDS011;69232;47.488;19.268;2023-10-31T12:37:31;3.08;;;1.48;;
79747;SDS011;69232;47.488;19.268;2023-10-31T12:39:57;7.85;;;2.70;;
79747;SDS011;69232;47.488;19.268;2023-10-31T12:45:44;7.07;;;3.05;;
79747;SDS011;69232;47.488;19.268;2023-10-31T12:48:10;8.85;;;2.50;;
79747;SDS011;69232;47.488;19.268;2023-10-31T12:50:37;6.78;;;3.08;;
79747;SDS011;69232;47.488;19.268;2023-10-31T12:53:04;2.67;;;2.33;;
79747;SDS011;69232;47.488;19.268;2023-10-31T12:55:31;4.78;;;2.97;;
79747;SDS011;69232;47.488;19.268;2023-10-31T12:58:01;4.63;;;3.30;;
79747;SDS011;69232;47.488;19.268;2023-10-31T13:00:31;8.38;;;3.47;;
79747;SDS011;69232;47.488;19.268;2023-10-31T13:03:04;5.70;;;2.95;;
79747;SDS011;69232;47.488;19.268;2023-10-31T13:05:31;6.45;;;3.75;;
79747;SDS011;69232;47.488;19.268;2023-10-31T13:07:57;8.93;;;3.30;;
79747;SDS011;69232;47.488;19.268;2023-10-31T13:10:28;7.65;;;2.92;;
79747;SDS011;69232;47.488;19.268;2023-10-31T13:12:54;7.63;;;3.38;;
79747;SDS011;69232;47.488;19.268;2023-10-31T13:15:21;7.20;;;4.53;;
79747;SDS011;69232;47.488;19.268;2023-10-31T13:17:47;8.75;;;3.70;;
79747;SDS011;69232;47.488;19.268;2023-10-31T13:20:14;9.30;;;3.88;;
79747;SDS011;69232;47.488;19.268;2023-10-31T13:22:41;8.60;;;4.18;;
79747;SDS011;69232;47.488;19.268;2023-10-31T13:25:10;6.47;;;3.83;;
79747;SDS011;69232;47.488;19.268;2023-10-31T13:27:37;8.73;;;4.10;;
79747;SDS011;69232;47.488;19.268;2023-10-31T13:30:04;8.18;;;4.97;;
79747;SDS011;69232;47.488;19.268;2023-10-31T13:32:30;7.10;;;4.50;;
79747;SDS011;69232;47.488;19.268;2023-10-31T13:34:56;8.90;;;3.80;;
79747;SDS011;69232;47.488;19.268;2023-10-31T13:37:21;10.88;;;4.25;;
79747;SDS011;69232;47.488;19.268;2023-10-31T13:39:47;6.25;;;3.92;;
79747;SDS011;69232;47.488;19.268;2023-10-31T13:42:13;8.07;;;4.65;;
79747;SDS011;69232;47.488;19.268;2023-10-31T13:44:39;6.40;;;4.28;;
79747;SDS011;69232;47.488;19.268;2023-10-31T13:47:05;10.02;;;5.60;;
79747;SDS011;69232;47.488;19.268;2023-10-31T13:49:31;7.38;;;4.38;;
79747;SDS011;69232;47.488;19.268;2023-10-31T13:51:56;10.80;;;4.88;;
79747;SDS011;69232;47.488;19.268;2023-10-31T13:54:22;9.98;;;3.65;;
79747;SDS011;69232;47.488;19.268;2023-10-31T13:56:47;9.10;;;4.22;;
79747;SDS011;69232;47.488;19.268;2023-10-31T13:59:13;7.65;;;3.60;;
79747;SDS011;69232;47.488;19.268;2023-10-31T14:01:39;4.72;;;3.90;;
79747;SDS011;69232;47.488;19.268;2023-10-31T14:04:06;9.40;;;4.13;;
79747;SDS011;69232;47.488;19.268;2023-10-31T14:06:32;9.48;;;3.63;;
79747;SDS011;69232;47.488;19.268;2023-10-31T14:08:58;11.40;;;3.70;;
79747;SDS011;69232;47.488;19.268;2023-10-31T14:11:24;6.72;;;2.65;;
79747;SDS011;69232;47.488;19.268;2023-10-31T14:13:49;10.38;;;3.40;;
79747;SDS011;69232;47.488;19.268;2023-10-31T14:16:16;6.50;;;3.50;;
79747;SDS011;69232;47.488;19.268;2023-10-31T14:18:41;4.57;;;2.45;;
79747;SDS011;69232;47.488;19.268;2023-10-31T14:21:08;3.70;;;2.35;;
79747;SDS011;69232;47.488;19.268;2023-10-31T14:23:33;3.45;;;2.58;;
79747;SDS011;69232;47.488;19.268;2023-10-31T14:25:59;2.97;;;2.13;;
79747;SDS011;69232;47.488;19.268;2023-10-31T14:28:24;4.15;;;2.10;;
79747;SDS011;69232;47.488;19.268;2023-10-31T14:30:50;2.53;;;1.90;;
79747;SDS011;69232;47.488;19.268;2023-10-31T14:33:17;3.85;;;2.13;;
79747;SDS011;69232;47.488;19.268;2023-10-31T14:35:43;2.15;;;1.95;;
79747;SDS011;69232;47.488;19.268;2023-10-31T14:38:08;6.63;;;2.45;;
79747;SDS011;69232;47.488;19.268;2023-10-31T14:40:34;6.85;;;3.45;;
79747;SDS011;69232;47.488;19.268;2023-10-31T14:42:59;5.60;;;2.80;;